createdAt,value
2022-08-04T00:01:54.154Z,7.60
2022-08-04T00:04:38.013Z,8.30
2022-08-04T00:07:16.568Z,7.80
2022-08-04T00:10:00.030Z,8.70
2022-08-04T00:12:39.218Z,8.80
2022-08-04T00:15:15.086Z,8.50
2022-08-04T00:17:54.340Z,8.70
2022-08-04T00:20:29.480Z,8.60
2022-08-04T00:23:00.759Z,8.20
2022-08-04T00:25:30.399Z,8.20
2022-08-04T00:28:02.269Z,10.20
2022-08-04T00:30:34.103Z,8.80
2022-08-04T00:33:03.939Z,8.90
2022-08-04T00:35:33.764Z,8.90
2022-08-04T00:38:04.137Z,7.50
2022-08-04T00:40:53.794Z,8.50
2022-08-04T00:43:35.677Z,8.20
2022-08-04T00:46:41.667Z,9.00
2022-08-04T00:49:53.742Z,9.80
2022-08-04T00:52:46.935Z,9.30
2022-08-04T00:55:33.738Z,8.90
2022-08-04T00:58:19.089Z,9.30
2022-08-04T01:01:01.160Z,8.50
2022-08-04T01:04:09.202Z,9.00
2022-08-04T01:06:44.889Z,9.10
2022-08-04T01:09:48.899Z,9.10
2022-08-04T01:12:37.674Z,9.10
2022-08-04T01:15:23.570Z,8.80
2022-08-04T01:18:27.530Z,8.80
2022-08-04T01:21:30.309Z,9.30
2022-08-04T01:24:59.979Z,10.20
2022-08-04T01:28:02.399Z,8.50
2022-08-04T01:30:33.696Z,10.60
2022-08-04T01:33:13.881Z,10.30
2022-08-04T01:35:56.540Z,9.30
2022-08-04T01:38:42.691Z,11.10
2022-08-04T01:41:19.345Z,10.20
2022-08-04T01:44:03.140Z,10.40
2022-08-04T01:46:36.645Z,10.00
2022-08-04T01:49:07.418Z,10.20
2022-08-04T01:51:40.066Z,10.80
2022-08-04T01:54:10.700Z,10.10
2022-08-04T01:57:02.059Z,9.70
2022-08-04T02:00:08.868Z,11.10
2022-08-04T02:02:41.807Z,11.50
2022-08-04T02:05:20.206Z,11.00
2022-08-04T02:08:46.230Z,11.90
2022-08-04T02:11:26.252Z,12.10
2022-08-04T02:14:47.227Z,10.70
2022-08-04T02:17:51.833Z,11.60
2022-08-04T02:21:21.071Z,11.90
2022-08-04T02:24:34.509Z,11.60
2022-08-04T02:28:00.603Z,13.30
2022-08-04T02:31:30.434Z,12.20
2022-08-04T02:34:32.751Z,13.50
2022-08-04T02:37:34.458Z,14.40
2022-08-04T02:40:30.005Z,13.40
2022-08-04T02:43:11.172Z,12.50
2022-08-04T02:46:05.500Z,14.50
2022-08-04T02:48:57.919Z,12.70
2022-08-04T02:51:39.754Z,12.80
2022-08-04T02:54:31.562Z,13.40
2022-08-04T02:58:07.742Z,12.20
2022-08-04T03:01:07.904Z,11.40
2022-08-04T03:04:47.928Z,13.20
2022-08-04T03:08:43.068Z,13.80
2022-08-04T03:12:04.533Z,12.80
2022-08-04T03:15:45.084Z,13.00
2022-08-04T03:18:35.370Z,13.30
2022-08-04T03:21:47.263Z,14.10
2022-08-04T03:24:43.638Z,14.60
2022-08-04T03:27:28.752Z,14.60
2022-08-04T03:30:56.275Z,13.40
2022-08-04T03:33:37.875Z,13.00
2022-08-04T03:39:48.645Z,13.40
2022-08-04T03:42:39.787Z,14.60
2022-08-04T03:45:38.988Z,13.80
2022-08-04T03:48:43.755Z,13.40
2022-08-04T03:51:52.992Z,13.10
2022-08-04T03:54:53.026Z,13.90
2022-08-04T03:58:09.584Z,13.10
2022-08-04T04:01:07.584Z,13.50
2022-08-04T04:04:29.484Z,14.00
2022-08-04T04:07:44.984Z,14.10
2022-08-04T04:10:52.586Z,13.80
2022-08-04T04:14:02.197Z,13.60
2022-08-04T04:17:09.294Z,14.20
2022-08-04T04:19:46.930Z,15.10
2022-08-04T04:22:52.680Z,15.20
2022-08-04T04:25:46.341Z,14.40
2022-08-04T04:28:44.736Z,13.80
2022-08-04T04:31:36.271Z,14.50
2022-08-04T04:34:46.234Z,15.20
2022-08-04T04:37:47.715Z,15.70
2022-08-04T04:40:57.862Z,15.20
2022-08-04T04:44:06.843Z,15.70
2022-08-04T04:47:17.641Z,15.60
2022-08-04T04:50:21.191Z,15.20
2022-08-04T04:53:36.259Z,16.00
2022-08-04T04:56:35.745Z,16.00
2022-08-04T04:59:15.701Z,15.00
2022-08-04T05:01:52.085Z,15.00
2022-08-04T05:04:58.521Z,15.00
2022-08-04T05:08:43.945Z,13.60
2022-08-04T05:11:49.545Z,14.00
2022-08-04T05:14:41.219Z,13.90
2022-08-04T05:17:32.006Z,14.40
2022-08-04T05:20:06.486Z,13.90
2022-08-04T05:22:57.065Z,13.60
2022-08-04T05:25:37.764Z,13.70
2022-08-04T05:28:18.674Z,13.20
2022-08-04T05:31:12.220Z,12.50
2022-08-04T05:33:54.714Z,12.40
2022-08-04T05:36:41.791Z,15.10
2022-08-04T05:39:19.486Z,12.00
2022-08-04T05:41:54.981Z,13.30
2022-08-04T05:44:28.275Z,12.30
2022-08-04T05:47:00.413Z,12.10
2022-08-04T05:49:30.534Z,12.20
2022-08-04T05:52:06.761Z,12.10
2022-08-04T05:54:38.097Z,13.00
2022-08-04T05:57:09.183Z,13.00
2022-08-04T05:59:42.543Z,13.50
2022-08-04T06:02:18.074Z,13.90
2022-08-04T06:04:52.807Z,12.90
2022-08-04T06:07:22.319Z,12.60
2022-08-04T06:09:51.575Z,12.00
2022-08-04T06:12:37.873Z,11.90
2022-08-04T06:15:11.406Z,10.90
2022-08-04T06:19:56.791Z,11.30
2022-08-04T06:20:50.024Z,11.50
2022-08-04T06:23:22.105Z,11.20
2022-08-04T06:25:57.361Z,11.10
2022-08-04T06:28:29.333Z,10.00
2022-08-04T06:32:26.837Z,12.20
2022-08-04T06:33:54.316Z,10.70
2022-08-04T06:36:25.483Z,10.70
2022-08-04T06:38:58.824Z,9.10
2022-08-04T06:41:31.066Z,10.20
2022-08-04T06:44:05.443Z,9.60
2022-08-04T06:46:41.528Z,9.10
2022-08-04T06:49:13.681Z,9.20
2022-08-04T06:51:49.506Z,9.50
2022-08-04T06:54:18.971Z,9.10
2022-08-04T06:56:49.962Z,9.10
2022-08-04T06:59:24.029Z,9.10
2022-08-04T07:01:54.552Z,8.60
2022-08-04T07:04:24.359Z,9.20
2022-08-04T07:06:56.078Z,8.10
2022-08-04T07:09:25.502Z,7.70
2022-08-04T07:11:55.730Z,7.90
2022-08-04T07:14:27.355Z,8.80
2022-08-04T07:16:57.368Z,7.90
2022-08-04T07:19:26.555Z,8.40
2022-08-04T07:22:16.824Z,7.90
2022-08-04T07:24:46.628Z,7.90
2022-08-04T07:27:17.636Z,7.80
2022-08-04T07:30:07.708Z,7.60
2022-08-04T07:32:41.717Z,7.00
2022-08-04T07:36:04.039Z,6.80
2022-08-04T07:38:04.217Z,6.60
2022-08-04T07:40:40.596Z,7.20
2022-08-04T07:43:10.431Z,7.10
2022-08-04T07:45:39.645Z,7.30
2022-08-04T07:48:12.657Z,6.80
2022-08-04T07:50:45.007Z,6.30
2022-08-04T07:53:53.069Z,6.50
2022-08-04T07:56:04.373Z,6.00
2022-08-04T07:58:33.334Z,6.90
2022-08-04T08:01:02.543Z,6.40
2022-08-04T08:03:32.582Z,7.00
2022-08-04T08:06:30.600Z,6.80
2022-08-04T08:08:52.002Z,6.90
2022-08-04T08:11:21.581Z,6.80
2022-08-04T08:13:51.212Z,7.50
2022-08-04T08:16:21.318Z,8.10
2022-08-04T08:18:56.405Z,7.50
2022-08-04T08:21:25.662Z,6.20
2022-08-04T08:23:56.178Z,7.60
2022-08-04T08:28:54.823Z,6.60
2022-08-04T08:31:57.506Z,7.70
2022-08-04T08:34:14.462Z,6.60
2022-08-04T08:37:14.131Z,6.70
2022-08-04T08:40:01.743Z,6.10
2022-08-04T08:42:59.234Z,6.10
2022-08-04T08:46:49.545Z,6.40
2022-08-04T08:50:03.061Z,5.60
2022-08-04T08:53:29.183Z,5.60
2022-08-04T08:56:10.025Z,5.50
2022-08-04T08:59:24.395Z,5.00
2022-08-04T09:02:40.923Z,5.10
2022-08-04T09:05:55.511Z,4.40
2022-08-04T09:09:04.673Z,4.00
2022-08-04T09:12:30.492Z,4.90
2022-08-04T09:15:38.003Z,4.60
2022-08-04T09:18:21.275Z,4.50
2022-08-04T09:21:37.714Z,4.40
2022-08-04T09:24:35.816Z,4.60
2022-08-04T09:27:18.546Z,4.60
2022-08-04T09:30:13.847Z,4.40
2022-08-04T09:33:16.505Z,5.30
2022-08-04T09:36:03.126Z,4.00
2022-08-04T09:39:09.802Z,4.10
2022-08-04T09:42:23.170Z,4.60
2022-08-04T09:45:43.266Z,4.30
2022-08-04T09:48:55.800Z,4.10
2022-08-04T09:51:56.952Z,4.00
2022-08-04T09:54:58.857Z,3.90
2022-08-04T09:58:12.992Z,4.30
2022-08-04T10:00:50.145Z,3.00
2022-08-04T10:03:25.079Z,4.00
2022-08-04T10:06:31.947Z,4.00
2022-08-04T10:09:45.117Z,4.00
2022-08-04T10:12:25.264Z,4.30
2022-08-04T10:15:11.698Z,4.20
2022-08-04T10:18:17.447Z,3.70
2022-08-04T10:21:10.266Z,3.80
2022-08-04T10:24:13.338Z,4.10
2022-08-04T10:27:23.011Z,4.40
2022-08-04T10:29:58.770Z,6.10
2022-08-04T10:32:43.117Z,4.20
2022-08-04T10:35:23.799Z,3.40
2022-08-04T10:41:50.827Z,3.80
2022-08-04T10:45:01.325Z,3.70
2022-08-04T10:50:09.437Z,4.10
2022-08-04T10:53:09.936Z,3.80
2022-08-04T10:56:07.379Z,3.80
2022-08-04T10:58:48.561Z,3.70
2022-08-04T11:01:59.846Z,3.60
2022-08-04T11:04:47.638Z,3.80
2022-08-04T11:07:17.943Z,3.80
2022-08-04T11:09:52.762Z,3.80
2022-08-04T11:12:32.708Z,4.00
2022-08-04T11:15:23.857Z,3.60
2022-08-04T11:18:16.812Z,4.10
2022-08-04T11:21:03.553Z,3.80
2022-08-04T11:23:37.957Z,4.50
2022-08-04T11:26:18.451Z,4.20
2022-08-04T11:31:40.184Z,3.50
2022-08-04T11:34:31.270Z,3.70
2022-08-04T11:37:19.333Z,3.90
2022-08-04T11:40:16.834Z,3.50
2022-08-04T11:43:08.983Z,3.50
2022-08-04T11:46:02.228Z,3.40
2022-08-04T11:49:14.517Z,3.80
2022-08-04T11:52:37.548Z,3.90
2022-08-04T11:56:09.410Z,3.30
2022-08-04T11:58:30.961Z,3.40
2022-08-04T12:01:29.464Z,3.40
2022-08-04T12:04:35.431Z,4.90
2022-08-04T12:07:30.677Z,3.50
2022-08-04T12:10:41.220Z,3.60
2022-08-04T12:14:15.529Z,4.00
2022-08-04T12:17:02.132Z,3.50
2022-08-04T12:20:03.932Z,3.50
2022-08-04T12:22:44.253Z,3.40
2022-08-04T12:25:44.879Z,2.90
2022-08-04T12:28:28.244Z,3.20
2022-08-04T12:31:28.295Z,3.20
2022-08-04T12:34:35.589Z,2.80
2022-08-04T12:37:49.755Z,2.70
2022-08-04T12:40:31.671Z,3.10
2022-08-04T12:43:12.060Z,3.90
2022-08-04T12:45:51.084Z,3.10
2022-08-04T12:48:22.913Z,7.00
2022-08-04T12:50:57.563Z,4.20
2022-08-04T12:53:50.569Z,3.70
2022-08-04T12:56:27.985Z,3.20
2022-08-04T12:59:12.802Z,5.10
2022-08-04T13:02:08.098Z,4.00
2022-08-04T13:04:51.314Z,5.90
2022-08-04T13:07:24.977Z,3.30
2022-08-04T13:09:54.269Z,2.90
2022-08-04T13:12:31.967Z,2.80
2022-08-04T13:15:22.214Z,3.10
2022-08-04T13:18:15.153Z,3.40
2022-08-04T13:20:46.063Z,3.50
2022-08-04T13:23:21.941Z,3.30
2022-08-04T13:26:42.489Z,3.20
2022-08-04T13:28:47.319Z,3.10
2022-08-04T13:31:21.095Z,2.90
2022-08-04T13:33:54.325Z,2.80
2022-08-04T13:36:29.053Z,2.60
2022-08-04T13:39:08.543Z,2.70
2022-08-04T13:41:43.890Z,2.80
2022-08-04T13:44:20.418Z,2.70
2022-08-04T13:47:01.597Z,3.00
2022-08-04T13:49:54.179Z,2.80
2022-08-04T13:52:26.981Z,2.90
2022-08-04T13:54:55.997Z,3.20
2022-08-04T13:57:45.196Z,3.00
2022-08-04T14:00:19.475Z,3.00
2022-08-04T14:03:23.863Z,2.70
2022-08-04T14:06:26.909Z,4.90
2022-08-04T14:09:00.836Z,3.80
2022-08-04T14:12:10.859Z,2.60
2022-08-04T14:14:34.183Z,2.80
2022-08-04T14:17:20.232Z,3.00
2022-08-04T14:20:00.120Z,4.70
2022-08-04T14:22:31.891Z,3.10
2022-08-04T14:25:18.084Z,2.60
2022-08-04T14:27:57.094Z,2.50
2022-08-04T14:30:37.837Z,2.80
2022-08-04T14:34:01.616Z,2.50
2022-08-04T14:36:04.358Z,2.30
2022-08-04T14:38:47.101Z,2.60
2022-08-04T14:41:19.810Z,2.70
2022-08-04T14:43:53.333Z,3.50
2022-08-04T14:46:30.353Z,3.60
2022-08-04T14:49:12.923Z,2.90
2022-08-04T14:51:45.107Z,11.40
2022-08-04T14:54:18.816Z,3.80
2022-08-04T14:57:02.093Z,2.90
2022-08-04T14:59:59.430Z,2.90
2022-08-04T15:02:36.243Z,2.60
2022-08-04T15:06:00.050Z,2.50
2022-08-04T15:07:58.486Z,2.70
2022-08-04T15:10:28.981Z,2.80
2022-08-04T15:12:59.532Z,2.20
2022-08-04T15:15:37.045Z,2.40
2022-08-04T15:18:11.558Z,2.20
2022-08-04T15:20:44.659Z,3.80
2022-08-04T15:23:14.337Z,2.40
2022-08-04T15:25:57.634Z,4.10
2022-08-04T15:28:29.755Z,2.90
2022-08-04T15:31:02.040Z,2.30
2022-08-04T15:33:34.056Z,2.50
2022-08-04T15:36:35.625Z,7.80
2022-08-04T15:39:30.081Z,4.30
2022-08-04T15:42:20.880Z,6.30
2022-08-04T15:45:21.936Z,2.40
2022-08-04T15:48:03.026Z,2.90
2022-08-04T15:50:33.006Z,2.30
2022-08-04T15:53:10.775Z,2.90
2022-08-04T15:55:43.961Z,2.40
2022-08-04T15:58:15.787Z,2.30
2022-08-04T16:00:50.780Z,8.10
2022-08-04T16:03:59.189Z,5.90
2022-08-04T16:06:26.833Z,2.50
2022-08-04T16:09:01.559Z,10.10
2022-08-04T16:11:33.357Z,4.10
2022-08-04T16:14:08.377Z,6.70
2022-08-04T16:16:37.588Z,2.90
2022-08-04T16:19:35.464Z,4.40
2022-08-04T16:22:05.556Z,2.60
2022-08-04T16:24:40.609Z,2.50
2022-08-04T16:27:11.711Z,2.50
2022-08-04T16:29:48.134Z,3.30
2022-08-04T16:32:26.485Z,2.80
2022-08-04T16:35:03.865Z,3.20
2022-08-04T16:37:37.975Z,2.40
2022-08-04T16:40:31.735Z,2.80
2022-08-04T16:43:14.834Z,2.40
2022-08-04T16:45:59.069Z,5.80
2022-08-04T16:48:34.714Z,3.00
2022-08-04T16:51:15.183Z,5.40
2022-08-04T16:53:52.324Z,3.50
2022-08-04T16:56:34.383Z,2.20
2022-08-04T16:59:12.185Z,2.70
2022-08-04T17:01:51.838Z,2.50
2022-08-04T17:04:35.291Z,2.80
2022-08-04T17:07:06.349Z,2.50
2022-08-04T17:09:35.466Z,2.50
2022-08-04T17:12:04.859Z,2.70
2022-08-04T17:14:33.984Z,2.70
2022-08-04T17:17:04.569Z,2.70
2022-08-04T17:19:38.075Z,2.90
2022-08-04T17:22:11.358Z,2.70
2022-08-04T17:24:41.220Z,2.90
2022-08-04T17:28:09.131Z,24.90
2022-08-04T17:30:00.282Z,6.30
2022-08-04T17:32:35.326Z,7.40
2022-08-04T17:35:10.070Z,4.10
2022-08-04T17:37:52.509Z,6.70
2022-08-04T17:40:25.383Z,4.30
2022-08-04T17:44:01.653Z,3.60
2022-08-04T17:46:28.793Z,2.90
2022-08-04T17:49:02.393Z,3.60
2022-08-04T17:52:05.354Z,3.40
2022-08-04T17:54:40.647Z,3.50
2022-08-04T17:57:21.330Z,3.20
2022-08-04T17:59:59.641Z,3.70
2022-08-04T18:02:34.984Z,3.40
2022-08-04T18:05:11.839Z,15.00
2022-08-04T18:08:39.050Z,4.90
2022-08-04T18:13:44.083Z,6.70
2022-08-04T18:16:21.765Z,10.80
2022-08-04T18:19:13.140Z,4.40
2022-08-04T18:22:00.265Z,4.20
2022-08-04T18:24:35.482Z,3.40
2022-08-04T18:27:26.476Z,3.00
2022-08-04T18:30:33.986Z,4.50
2022-08-04T18:33:24.617Z,3.30
2022-08-04T18:36:35.479Z,3.80
2022-08-04T18:38:58.913Z,3.90
2022-08-04T18:41:30.413Z,3.60
2022-08-04T18:44:27.395Z,4.40
2022-08-04T18:51:01.774Z,4.00
2022-08-04T18:52:45.411Z,4.50
2022-08-04T18:55:56.149Z,4.40
2022-08-04T18:58:11.788Z,8.00
2022-08-04T19:03:33.328Z,4.50
2022-08-04T19:06:03.156Z,4.70
2022-08-04T19:08:42.066Z,4.40
2022-08-04T19:11:35.232Z,4.60
2022-08-04T19:14:05.143Z,4.70
2022-08-04T19:16:47.317Z,6.50
2022-08-04T19:19:20.238Z,5.80
2022-08-04T19:22:00.350Z,5.30
2022-08-04T19:24:34.741Z,4.80
2022-08-04T19:27:16.326Z,4.60
2022-08-04T19:29:46.209Z,5.40
2022-08-04T19:32:16.279Z,5.50
2022-08-04T19:34:49.904Z,5.30
2022-08-04T19:37:58.416Z,5.20
2022-08-04T19:40:33.599Z,5.70
2022-08-04T19:43:15.290Z,5.00
2022-08-04T19:45:45.762Z,12.20
2022-08-04T19:51:04.641Z,6.60
2022-08-04T19:53:37.586Z,5.20
2022-08-04T19:56:07.570Z,4.60
2022-08-04T19:58:38.605Z,6.20
2022-08-04T20:01:14.429Z,5.30
2022-08-04T20:04:08.961Z,6.20
2022-08-04T20:06:39.802Z,5.60
2022-08-04T20:09:26.312Z,4.80
2022-08-04T20:11:57.344Z,5.20
2022-08-04T20:14:32.727Z,5.30
2022-08-04T20:17:10.351Z,5.20
2022-08-04T20:19:40.025Z,5.60
2022-08-04T20:22:51.945Z,6.10
2022-08-04T20:25:27.249Z,5.40
2022-08-04T20:28:00.081Z,6.90
2022-08-04T20:30:31.034Z,5.50
2022-08-04T20:33:04.088Z,6.00
2022-08-04T20:35:46.038Z,5.60
2022-08-04T20:38:33.388Z,6.20
2022-08-04T20:41:03.519Z,5.10
2022-08-04T20:43:32.904Z,5.50
2022-08-04T20:46:18.598Z,5.60
2022-08-04T20:48:52.622Z,5.90
2022-08-04T20:51:31.819Z,5.40
2022-08-04T20:54:04.448Z,5.60
2022-08-04T20:56:51.264Z,5.60
2022-08-04T20:59:22.896Z,5.70
2022-08-04T21:01:53.956Z,6.00
2022-08-04T21:04:31.635Z,5.90
2022-08-04T21:07:10.095Z,6.80
2022-08-04T21:09:50.636Z,5.60
2022-08-04T21:12:28.540Z,5.20
2022-08-04T21:15:13.700Z,5.40
2022-08-04T21:17:57.960Z,5.80
2022-08-04T21:20:39.535Z,5.50
2022-08-04T21:23:12.224Z,5.40
2022-08-04T21:25:51.182Z,5.10
2022-08-04T21:28:21.574Z,5.00
2022-08-04T21:30:55.793Z,4.50
2022-08-04T21:33:50.044Z,5.20
2022-08-04T21:36:27.431Z,5.00
2022-08-04T21:38:57.430Z,5.90
2022-08-04T21:41:27.262Z,6.40
2022-08-04T21:43:59.478Z,5.80
2022-08-04T21:46:31.349Z,5.20
2022-08-04T21:49:02.560Z,5.60
2022-08-04T21:51:58.488Z,5.20
2022-08-04T21:54:28.376Z,6.10
2022-08-04T21:56:57.567Z,5.30
2022-08-04T21:59:34.040Z,4.40
2022-08-04T22:02:15.335Z,5.90
2022-08-04T22:04:57.181Z,5.30
2022-08-04T22:07:50.483Z,6.30
2022-08-04T22:10:22.413Z,5.80
2022-08-04T22:13:06.861Z,5.20
2022-08-04T22:16:05.423Z,4.70
2022-08-04T22:18:28.033Z,4.50
2022-08-04T22:20:59.838Z,4.80
2022-08-04T22:23:31.037Z,4.80
2022-08-04T22:26:26.814Z,4.90
2022-08-04T22:28:58.455Z,4.40
2022-08-04T22:31:29.365Z,4.20
2022-08-04T22:34:18.311Z,4.70
2022-08-04T22:36:48.197Z,4.50
2022-08-04T22:39:17.180Z,4.50
2022-08-04T22:42:04.375Z,5.50
2022-08-04T22:44:34.135Z,5.30
2022-08-04T22:47:06.048Z,5.60
2022-08-04T22:49:37.874Z,5.40
2022-08-04T22:54:50.888Z,5.20
2022-08-04T22:57:20.844Z,5.40
2022-08-04T23:00:11.978Z,4.90
2022-08-04T23:02:42.965Z,5.20
2022-08-04T23:05:15.757Z,5.40
2022-08-04T23:07:49.190Z,5.70
2022-08-04T23:10:18.878Z,4.80
2022-08-04T23:12:53.632Z,5.50
2022-08-04T23:15:22.569Z,4.60
2022-08-04T23:17:51.836Z,5.60
2022-08-04T23:20:23.410Z,4.90
2022-08-04T23:23:12.327Z,5.40
2022-08-04T23:26:07.080Z,6.20
2022-08-04T23:28:34.859Z,5.20
2022-08-04T23:31:05.527Z,5.40
2022-08-04T23:33:50.946Z,4.30
2022-08-04T23:36:30.073Z,5.50
2022-08-04T23:39:04.061Z,4.40
2022-08-04T23:41:54.669Z,5.00
2022-08-04T23:44:26.750Z,4.90
2022-08-04T23:47:04.633Z,4.90
2022-08-04T23:49:44.874Z,4.80
2022-08-04T23:52:27.923Z,6.00
2022-08-04T23:54:59.616Z,6.00
2022-08-04T23:57:31.406Z,5.90
